• Join FlightAware (Why Join?)
  • Login
  • US Flag 
11:51AM EST


 

Airport Tracker/Info


-or-


 

Live Flight TrackerFlight Track Log ✈ CPA71 ✈ 29-Apr-2013 ✈ PANC - VHHH / HKG

Flight Track Log - Related Links

Times and Time Zones

All times are in EDT time to prevent confusion due to time zone crossing. See the CPA71 flight status page for this flight to view local times or setup timezone preferences in your user account.

Time Position Orientation Groundspeed Altitude Reporting Facility
EDT Latitude Longitude Course Direction KTS MPH feet Rate Location/Type
01:08AM 61.3837 -151.5591 286° West  Level Estimated
01:09AM 61.4122 -151.7838 285° West  Level Estimated
01:10AM 61.4403 -152.0088 285° West  Level Estimated
01:11AM 61.4680 -152.2343 285° West  Level Estimated
01:12AM 61.4954 -152.4602 284° West  Level Estimated
01:13AM 61.5224 -152.6864 284° West  Level Estimated
01:14AM 61.5490 -152.9131 284° West  Level Estimated
01:15AM 61.5752 -153.1402 284° West  Level Estimated
01:16AM 61.6011 -153.3676 284° West  Level Estimated
01:17AM 61.6266 -153.5954 283° West  Level Estimated
01:18AM 61.6517 -153.8236 283° West  Level Estimated
01:19AM 61.6764 -154.0521 283° West  Level Estimated
01:20AM 61.7007 -154.2810 283° West  Level Estimated
01:21AM 61.7247 -154.5103 283° West  Level Estimated
01:22AM 61.7483 -154.7399 282° West  Level Estimated
01:23AM 61.7715 -154.9699 282° West  Level Estimated
01:24AM 61.7943 -155.2002 282° West  Level Estimated
01:25AM 61.8167 -155.4309 282° West  Level Estimated
01:26AM 61.8387 -155.6619 282° West  Level Estimated
01:27AM 61.8604 -155.8932 281° West  Level Estimated
01:28AM 61.8816 -156.1248 281° West  Level Estimated
01:29AM 61.9025 -156.3568 281° West  Level Estimated
01:30AM 61.9229 -156.5891 281° West  Level Estimated
01:31AM 61.9430 -156.8216 281° West  Level Estimated
01:32AM 61.9627 -157.0545 280° West  Level Estimated
01:33AM 61.9820 -157.2877 280° West  Level Estimated
01:34AM 62.0009 -157.5212 280° West  Level Estimated
01:35AM 62.0194 -157.7549 280° West  Level Estimated
01:36AM 62.0375 -157.9890 279° West  Level Estimated
01:37AM 62.0552 -158.2233 279° West  Level Estimated
01:38AM 62.0726 -158.4579 279° West  Level Estimated
01:39AM 62.0895 -158.6927 279° West  Level Estimated
01:40AM 62.1060 -158.9279 279° West  Level Estimated
01:41AM 62.1221 -159.1632 278° West  Level Estimated
01:42AM 62.1379 -159.3988 278° West  Level Estimated
01:43AM 62.1532 -159.6347 278° West  Level Estimated
01:44AM 62.1681 -159.8708 278° West  Level Estimated
01:45AM 62.1826 -160.1071 278° West  Level Estimated
01:46AM 62.1967 -160.3436 277° West  Level Estimated
01:47AM 62.2104 -160.5804 277° West  Level Estimated
01:48AM 62.2238 -160.8174 277° West  Level Estimated
01:49AM 62.2366 -161.0546 277° West  Level Estimated
01:50AM 62.2491 -161.2919 277° West  Level Estimated
01:51AM 62.2612 -161.5295 276° West  Level Estimated
01:52AM 62.2729 -161.7673 276° West  Level Estimated
01:53AM 62.2842 -162.0052 276° West  Level Estimated
01:54AM 62.2951 -162.2433 276° West  Level Estimated
01:55AM 62.3055 -162.4816 276° West  Level Estimated
01:56AM 62.3156 -162.7201 275° West  Level Estimated
01:57AM 62.3253 -162.9587 275° West  Level Estimated
01:58AM 62.3345 -163.1974 275° West  Level Estimated
01:59AM 62.3433 -163.4364 275° West  Level Estimated
02:00AM 62.3517 -163.6754 274° West  Level Estimated
02:01AM 62.3598 -163.9146 274° West  Level Estimated
02:02AM 62.3674 -164.1539 274° West  Level Estimated
02:03AM 62.3745 -164.3933 274° West  Level Estimated
02:04AM 62.3813 -164.6328 274° West  Level Estimated
02:05AM 62.3877 -164.8724 273° West  Level Estimated
02:06AM 62.3937 -165.1121 273° West  Level Estimated
02:07AM 62.3992 -165.3520 273° West  Level Estimated
02:08AM 62.4043 -165.5919 273° West  Level Estimated
02:09AM 62.4090 -165.8318 273° West  Level Estimated
02:10AM 62.4134 -166.0719 272° West  Level Estimated
02:11AM 62.4173 -166.3120 272° West  Level Estimated
02:12AM 62.4207 -166.5522 272° West  Level Estimated
02:13AM 62.4238 -166.7924 272° West  Level Estimated
02:14AM 62.4264 -167.0327 271° West  Level Estimated
02:15AM 62.4287 -167.2730 271° West  Level Estimated
02:16AM 62.4305 -167.5134 271° West  Level Estimated
02:17AM 62.4319 -167.7538 271° West  Level Estimated
02:18AM 62.4329 -167.9942 271° West  Level Estimated
02:19AM 62.4335 -168.2346 270° West  Level Estimated
02:20AM 62.4337 -168.4750 270° West  Level Estimated
02:21AM 62.4334 -168.7154 270° West  Level Estimated
02:22AM 62.4328 -168.9558 270° West  Level Estimated
02:23AM 62.4317 -169.1962 270° West  Level Estimated
02:24AM 62.4302 -169.4366 269° West  Level Estimated
02:25AM 62.4283 -169.6769 269° West  Level Estimated
02:26AM 62.4260 -169.9172 269° West  Level Estimated
02:27AM 62.4233 -170.1575 269° West  Level Estimated
02:28AM 62.4202 -170.3977 268° West  Level Estimated
02:29AM 62.4166 -170.6379 268° West  Level Estimated
02:30AM 62.4126 -170.8780 268° West  Level Estimated
02:31AM 62.4082 -171.1180 268° West  Level Estimated
02:32AM 62.4035 -171.3580 268° West  Level Estimated
02:33AM 62.3983 -171.5979 267° West  Level Estimated
02:34AM 62.3926 -171.8377 267° West  Level Estimated
02:35AM 62.3866 -172.0774 267° West  Level Estimated
02:36AM 62.3802 -172.3170 267° West  Level Estimated
02:37AM 62.3733 -172.5565 267° West  Level Estimated
02:38AM 62.3661 -172.7959 266° West  Level Estimated
02:39AM 62.3584 -173.0352 266° West  Level Estimated
02:40AM 62.3503 -173.2743 266° West  Level Estimated
02:41AM 62.3418 -173.5133 266° West  Level Estimated
02:42AM 62.3329 -173.7522 266° West  Level Estimated
02:43AM 62.3236 -173.9909 265° West  Level Estimated
02:44AM 62.3139 -174.2295 265° West  Level Estimated
02:45AM 62.3038 -174.4679 265° West  Level Estimated
02:46AM 62.2932 -174.7062 265° West  Level Estimated
02:47AM 62.2823 -174.9443 264° West  Level Estimated
02:48AM 62.2709 -175.1822 264° West  Level Estimated
02:49AM 62.2592 -175.4199 264° West  Level Estimated
02:50AM 62.2470 -175.6575 264° West  Level Estimated
02:51AM 62.2344 -175.8948 264° West  Level Estimated
02:52AM 62.2215 -176.1320 263° West  Level Estimated
02:53AM 62.2081 -176.3689 263° West  Level Estimated
02:54AM 62.1943 -176.6056 263° West  Level Estimated
02:55AM 62.1801 -176.8421 263° West  Level Estimated
02:56AM 62.1655 -177.0784 263° West  Level Estimated
02:57AM 62.1505 -177.3145 262° West  Level Estimated
02:58AM 62.1351 -177.5503 262° West  Level Estimated
02:59AM 62.1194 -177.7859 262° West  Level Estimated
03:00AM 62.1032 -178.0212 262° West  Level Estimated
03:01AM 62.0866 -178.2563 262° West  Level Estimated
03:02AM 62.0696 -178.4911 261° West  Level Estimated
03:03AM 62.0522 -178.7256 261° West  Level Estimated
03:04AM 62.0344 -178.9599 261° West  Level Estimated
03:05AM 62.0162 -179.1939 261° West  Level Estimated
03:06AM 61.9976 -179.4276 260° West  Level Estimated
03:07AM 61.9787 -179.6610 260° West  Level Estimated
03:08AM 61.9593 -179.8941 260° West  Level Estimated
03:09AM 61.9395 179.8730 260° West  Level Estimated
03:10AM 61.9194 179.6405 260° West  Level Estimated
03:11AM 61.8988 179.4083 259° West  Level Estimated
03:12AM 61.8779 179.1764 259° West  Level Estimated
03:13AM 61.8566 178.9448 259° West  Level Estimated
03:14AM 61.8349 178.7135 259° West  Level Estimated
03:15AM 61.8128 178.4826 259° West  Level Estimated
03:16AM 61.7903 178.2520 258° West  Level Estimated
03:17AM 61.7674 178.0217 258° West  Level Estimated
03:18AM 61.7442 177.7918 258° West  Level Estimated
03:19AM 61.7205 177.5623 258° West  Level Estimated
03:20AM 61.6965 177.3331 258° West  Level Estimated
03:21AM 61.6721 177.1042 257° West  Level Estimated
03:22AM 61.6473 176.8757 257° West  Level Estimated
03:23AM 61.6221 176.6476 257° West  Level Estimated
03:24AM 61.5966 176.4199 257° West  Level Estimated
03:25AM 61.5707 176.1925 257° West  Level Estimated
03:26AM 61.5444 175.9655 256° West  Level Estimated
03:27AM 61.5177 175.7390 256° West  Level Estimated
03:28AM 61.4906 175.5128 256° West  Level Estimated
03:29AM 61.4632 175.2870 256° West  Level Estimated
03:30AM 61.4354 175.0615 256° West  Level Estimated
03:31AM 61.4072 174.8365 255° West  Level Estimated
03:32AM 61.3787 174.6120 255° West  Level Estimated
03:33AM 61.3498 174.3878 255° West  Level Estimated
03:34AM 61.3205 174.1640 255° West  Level Estimated
03:35AM 61.2909 173.9407 255° West  Level Estimated
03:36AM 61.2608 173.7177 254° West  Level Estimated
03:37AM 61.2305 173.4953 254° West  Level Estimated
03:38AM 61.1997 173.2732 254° West  Level Estimated
03:39AM 61.1686 173.0516 254° West  Level Estimated
03:40AM 61.1371 172.8304 254° West  Level Estimated
03:41AM 61.1053 172.6097 253° West  Level Estimated
03:42AM 61.0731 172.3894 253° West  Level Estimated
03:43AM 61.0406 172.1695 253° West  Level Estimated
03:44AM 61.0077 171.9501 253° West  Level Estimated
03:45AM 60.9744 171.7312 253° West  Level Estimated
03:46AM 60.9408 171.5127 253° West  Level Estimated
03:47AM 60.9068 171.2947 252° West  Level Estimated
03:48AM 60.8725 171.0771 252° West  Level Estimated
03:49AM 60.8379 170.8601 252° West  Level Estimated
03:50AM 60.8029 170.6435 252° West  Level Estimated
03:51AM 60.7675 170.4273 252° West  Level Estimated
03:52AM 60.7318 170.2117 251° West  Level Estimated
03:53AM 60.6957 169.9965 251° West  Level Estimated
03:54AM 60.6593 169.7818 251° West  Level Estimated
03:55AM 60.6226 169.5676 251° West  Level Estimated
03:56AM 60.5855 169.3539 251° West  Level Estimated
03:57AM 60.5481 169.1407 250° West  Level Estimated
03:58AM 60.5103 168.9280 250° West  Level Estimated
03:59AM 60.4722 168.7158 250° West  Level Estimated
04:00AM 60.4338 168.5040 250° West  Level Estimated
04:01AM 60.3950 168.2928 250° West  Level Estimated
04:02AM 60.3559 168.0821 250° West  Level Estimated
04:03AM 60.3165 167.8719 249° West  Level Estimated
04:04AM 60.2767 167.6622 249° West  Level Estimated
04:05AM 60.2366 167.4530 249° West  Level Estimated
04:06AM 60.1962 167.2443 249° West  Level Estimated
04:07AM 60.1554 167.0362 249° West  Level Estimated
04:08AM 60.1144 166.8285 248° West  Level Estimated
04:09AM 60.0730 166.6214 248° West  Level Estimated
04:10AM 60.0312 166.4148 248° West  Level Estimated
04:11AM 59.9892 166.2087 248° West  Level Estimated
04:12AM 59.9468 166.0032 248° West  Level Estimated
04:13AM 59.9041 165.7981 248° West  Level Estimated
04:14AM 59.8611 165.5936 247° West  Level Estimated
04:15AM 59.8178 165.3897 247° West  Level Estimated
04:16AM 59.7742 165.1862 247° West  Level Estimated
04:17AM 59.7302 164.9833 247° West  Level Estimated
04:18AM 59.6860 164.7810 247° West  Level Estimated
04:19AM 59.6414 164.5791 246° West  Level Estimated
04:20AM 59.5965 164.3778 246° West  Level Estimated
04:21AM 59.5513 164.1771 246° West  Level Estimated
04:22AM 59.5058 163.9769 246° West  Level Estimated
04:23AM 59.4600 163.7772 246° West  Level Estimated
04:24AM 59.4139 163.5780 246° West  Level Estimated
04:25AM 59.3675 163.3795 245° Southwest  Level Estimated
04:26AM 59.3208 163.1814 245° Southwest  Level Estimated
04:27AM 59.2738 162.9839 245° Southwest  Level Estimated
04:28AM 59.2265 162.7869 245° Southwest  Level Estimated
04:29AM 59.1789 162.5905 245° Southwest  Level Estimated
04:30AM 59.1310 162.3947 245° Southwest  Level Estimated
04:31AM 59.0828 162.1994 244° Southwest  Level Estimated
04:32AM 59.0343 162.0046 244° Southwest  Level Estimated
04:33AM 58.9856 161.8104 244° Southwest  Level Estimated
04:34AM 58.9365 161.6167 244° Southwest  Level Estimated
04:35AM 58.8871 161.4236 244° Southwest  Level Estimated
04:36AM 58.8375 161.2311 244° Southwest  Level Estimated
04:37AM 58.7876 161.0390 243° Southwest  Level Estimated
04:38AM 58.7374 160.8476 243° Southwest  Level Estimated
04:39AM 58.6869 160.6567 243° Southwest  Level Estimated
04:40AM 58.6361 160.4664 243° Southwest  Level Estimated
04:41AM 58.5851 160.2766 243° Southwest  Level Estimated
04:42AM 58.5337 160.0873 243° Southwest  Level Estimated
04:43AM 58.4821 159.8987 242° Southwest  Level Estimated
04:44AM 58.4302 159.7105 242° Southwest  Level Estimated
04:45AM 58.3781 159.5229 242° Southwest  Level Estimated
04:46AM 58.3256 159.3359 242° Southwest  Level Estimated
04:47AM 58.2729 159.1495 242° Southwest  Level Estimated
04:48AM 58.2199 158.9636 242° Southwest  Level Estimated
04:49AM 58.1667 158.7782 241° Southwest  Level Estimated
04:50AM 58.1132 158.5934 241° Southwest  Level Estimated
04:51AM 58.0594 158.4092 241° Southwest  Level Estimated
04:52AM 58.0053 158.2255 241° Southwest  Level Estimated
04:53AM 57.9510 158.0424 241° Southwest  Level Estimated
04:54AM 57.8965 157.8598 241° Southwest  Level Estimated
04:55AM 57.8416 157.6778 241° Southwest  Level Estimated
04:56AM 57.7865 157.4963 240° Southwest  Level Estimated
04:57AM 57.7312 157.3154 240° Southwest  Level Estimated
04:58AM 57.6756 157.1351 240° Southwest  Level Estimated
04:59AM 57.6197 156.9552 240° Southwest  Level Estimated
05:00AM 57.5636 156.7760 240° Southwest  Level Estimated
05:01AM 57.5072 156.5973 240° Southwest  Level Estimated
05:02AM 57.4506 156.4192 239° Southwest  Level Estimated
05:03AM 57.3937 156.2416 239° Southwest  Level Estimated
05:04AM 57.3366 156.0645 239° Southwest  Level Estimated
05:05AM 57.2793 155.8880 239° Southwest  Level Estimated
05:06AM 57.2216 155.7121 239° Southwest  Level Estimated
05:07AM 57.1638 155.5367 239° Southwest  Level Estimated
05:08AM 57.1057 155.3619 239° Southwest  Level Estimated
05:09AM 57.0473 155.1876 238° Southwest  Level Estimated
05:10AM 56.9887 155.0138 238° Southwest  Level Estimated
05:11AM 56.9299 154.8406 238° Southwest  Level Estimated
05:12AM 56.8708 154.6680 238° Southwest  Level Estimated
05:13AM 56.8115 154.4959 238° Southwest  Level Estimated
05:14AM 56.7520 154.3243 238° Southwest  Level Estimated
05:15AM 56.6922 154.1533 238° Southwest  Level Estimated
05:16AM 56.6322 153.9828 237° Southwest  Level Estimated
05:17AM 56.5719 153.8129 237° Southwest  Level Estimated
05:18AM 56.5115 153.6435 237° Southwest  Level Estimated
05:19AM 56.4508 153.4747 237° Southwest  Level Estimated
05:20AM 56.3899 153.3064 237° Southwest  Level Estimated
05:21AM 56.3287 153.1386 237° Southwest  Level Estimated
05:22AM 56.2673 152.9714 237° Southwest  Level Estimated
05:23AM 56.2057 152.8047 236° Southwest  Level Estimated
05:24AM 56.1439 152.6385 236° Southwest  Level Estimated
05:25AM 56.0818 152.4729 236° Southwest  Level Estimated
05:26AM 56.0195 152.3078 236° Southwest  Level Estimated
05:27AM 55.9570 152.1432 236° Southwest  Level Estimated
05:28AM 55.8943 151.9792 236° Southwest  Level Estimated
05:29AM 55.8314 151.8157 236° Southwest  Level Estimated
05:30AM 55.7682 151.6528 235° Southwest  Level Estimated
05:31AM 55.7049 151.4903 235° Southwest  Level Estimated
05:32AM 55.6413 151.3284 235° Southwest  Level Estimated
05:33AM 55.5775 151.1670 235° Southwest  Level Estimated
05:34AM 55.5135 151.0062 235° Southwest  Level Estimated
05:35AM 55.4493 150.8458 235° Southwest  Level Estimated
05:36AM 55.3849 150.6860 235° Southwest  Level Estimated
05:37AM 55.3202 150.5267 235° Southwest  Level Estimated
05:38AM 55.2554 150.3679 234° Southwest  Level Estimated
05:39AM 55.1904 150.2097 234° Southwest  Level Estimated
05:40AM 55.1251 150.0519 234° Southwest  Level Estimated
05:41AM 55.0597 149.8947 234° Southwest  Level Estimated
05:42AM 54.9940 149.7380 234° Southwest  Level Estimated
05:43AM 54.9282 149.5818 234° Southwest  Level Estimated
05:44AM 54.8621 149.4261 234° Southwest  Level Estimated
05:45AM 54.7959 149.2709 234° Southwest  Level Estimated
05:46AM 54.7294 149.1162 233° Southwest  Level Estimated
05:47AM 54.6628 148.9621 233° Southwest  Level Estimated
05:48AM 54.5960 148.8084 233° Southwest  Level Estimated
05:49AM 54.5289 148.6553 233° Southwest  Level Estimated
05:50AM 54.4617 148.5026 233° Southwest  Level Estimated
05:51AM 54.3943 148.3505 233° Southwest  Level Estimated
05:52AM 54.3267 148.1988 233° Southwest  Level Estimated
05:53AM 54.2589 148.0477 233° Southwest  Level Estimated
05:54AM 54.1909 147.8970 232° Southwest  Level Estimated
05:55AM 54.1227 147.7469 232° Southwest  Level Estimated
05:56AM 54.0544 147.5972 232° Southwest  Level Estimated
05:57AM 53.9858 147.4480 232° Southwest  Level Estimated
05:58AM 53.9171 147.2993 232° Southwest  Level Estimated
05:59AM 53.8482 147.1512 232° Southwest  Level Estimated
06:00AM 53.7791 147.0035 232° Southwest  Level Estimated
06:01AM 53.7098 146.8562 232° Southwest  Level Estimated
06:02AM 53.6404 146.7095 231° Southwest  Level Estimated
06:03AM 53.5708 146.5633 231° Southwest  Level Estimated
06:04AM 53.5009 146.4175 231° Southwest  Level Estimated
06:05AM 53.4310 146.2722 231° Southwest  Level Estimated
06:06AM 53.3608 146.1274 231° Southwest  Level Estimated
06:07AM 53.2905 145.9831 231° Southwest  Level Estimated
06:08AM 53.2200 145.8392 231° Southwest  Level Estimated
06:09AM 53.1493 145.6958 231° Southwest  Level Estimated
06:10AM 53.0784 145.5529 231° Southwest  Level Estimated
06:11AM 53.0074 145.4105 230° Southwest  Level Estimated
06:12AM 52.9362 145.2685 230° Southwest  Level Estimated
06:13AM 52.8648 145.1270 230° Southwest  Level Estimated
06:14AM 52.7933 144.9859 230° Southwest  Level Estimated
06:15AM 52.7216 144.8454 230° Southwest  Level Estimated
06:16AM 52.6498 144.7052 230° Southwest  Level Estimated
06:17AM 52.5777 144.5656 230° Southwest  Level Estimated
06:18AM 52.5055 144.4264 230° Southwest  Level Estimated
06:19AM 52.4332 144.2876 229° Southwest  Level Estimated
06:20AM 52.3607 144.1494 229° Southwest  Level Estimated
06:21AM 52.2880 144.0115 229° Southwest  Level Estimated
06:22AM 52.2151 143.8741 229° Southwest  Level Estimated
06:23AM 52.1422 143.7372 229° Southwest  Level Estimated
06:24AM 52.0690 143.6007 229° Southwest  Level Estimated
06:25AM 51.9957 143.4647 229° Southwest  Level Estimated
06:26AM 51.9222 143.3291 229° Southwest  Level Estimated
06:27AM 51.8486 143.1940 229° Southwest  Level Estimated
06:28AM 51.7748 143.0593 229° Southwest  Level Estimated
06:29AM 51.7009 142.9250 228° Southwest  Level Estimated
06:30AM 51.6268 142.7912 228° Southwest  Level Estimated
06:31AM 51.5526 142.6578 228° Southwest  Level Estimated
06:32AM 51.4782 142.5249 228° Southwest  Level Estimated
06:33AM 51.4037 142.3923 228° Southwest  Level Estimated
06:34AM 51.3290 142.2603 228° Southwest  Level Estimated
06:35AM 51.2542 142.1286 228° Southwest  Level Estimated
06:36AM 51.1792 141.9974 228° Southwest  Level Estimated
06:37AM 51.1041 141.8666 228° Southwest  Level Estimated
06:38AM 51.0288 141.7362 227° Southwest  Level Estimated
06:39AM 50.9534 141.6062 227° Southwest  Level Estimated
06:40AM 50.8778 141.4767 227° Southwest  Level Estimated
06:41AM 50.8021 141.3476 227° Southwest  Level Estimated
06:42AM 50.7263 141.2189 227° Southwest  Level Estimated
06:43AM 50.6503 141.0906 227° Southwest  Level Estimated
06:44AM 50.5742 140.9628 227° Southwest  Level Estimated
06:45AM 50.4979 140.8353 227° Southwest  Level Estimated
06:46AM 50.4215 140.7083 227° Southwest  Level Estimated
06:47AM 50.3450 140.5816 227° Southwest  Level Estimated
06:48AM 50.2683 140.4554 226° Southwest  Level Estimated
06:49AM 50.1915 140.3296 226° Southwest  Level Estimated
06:50AM 50.1145 140.2042 226° Southwest  Level Estimated
06:51AM 50.0374 140.0792 226° Southwest  Level Estimated
06:52AM 49.9602 139.9546 226° Southwest  Level Estimated
06:53AM 49.8829 139.8304 226° Southwest  Level Estimated
06:54AM 49.8054 139.7065 226° Southwest  Level Estimated
06:55AM 49.7278 139.5831 226° Southwest  Level Estimated
06:56AM 49.6500 139.4601 226° Southwest  Level Estimated
06:57AM 49.5722 139.3375 226° Southwest  Level Estimated
06:58AM 49.4941 139.2152 226° Southwest  Level Estimated
06:59AM 49.4160 139.0934 225° Southwest  Level Estimated
07:00AM 49.3378 138.9719 225° Southwest  Level Estimated
07:01AM 49.2594 138.8509 225° Southwest  Level Estimated
07:02AM 49.1809 138.7302 225° Southwest  Level Estimated
07:03AM 49.1022 138.6099 225° Southwest  Level Estimated
07:04AM 49.0235 138.4899 225° Southwest  Level Estimated
07:05AM 48.9446 138.3704 225° Southwest  Level Estimated
07:06AM 48.8656 138.2512 225° Southwest  Level Estimated
07:07AM 48.7864 138.1324 225° Southwest  Level Estimated
07:08AM 48.7072 138.0140 225° Southwest  Level Estimated
07:09AM 48.6278 137.8960 225° Southwest  Level Estimated
07:10AM 48.5483 137.7783 224° Southwest  Level Estimated
07:11AM 48.4687 137.6610 224° Southwest  Level Estimated
07:12AM 48.3889 137.5440 224° Southwest  Level Estimated
07:13AM 48.3091 137.4275 224° Southwest  Level Estimated
07:14AM 48.2291 137.3112 224° Southwest  Level Estimated
07:15AM 48.1490 137.1954 224° Southwest  Level Estimated
07:16AM 48.0688 137.0799 224° Southwest  Level Estimated
07:17AM 47.9885 136.9648 224° Southwest  Level Estimated
07:18AM 47.9081 136.8500 224° Southwest  Level Estimated
07:19AM 47.8275 136.7356 224° Southwest  Level Estimated
07:20AM 47.7469 136.6216 224° Southwest  Level Estimated
07:21AM 47.6661 136.5079 223° Southwest  Level Estimated
07:22AM 47.5852 136.3945 223° Southwest  Level Estimated
07:23AM 47.5042 136.2815 223° Southwest  Level Estimated
07:24AM 47.4231 136.1689 223° Southwest  Level Estimated
07:25AM 47.3419 136.0566 223° Southwest  Level Estimated
07:26AM 47.2606 135.9446 223° Southwest  Level Estimated
07:27AM 47.1791 135.8330 223° Southwest  Level Estimated
07:28AM 47.0976 135.7217 223° Southwest  Level Estimated
07:29AM 47.0159 135.6108 223° Southwest  Level Estimated
07:30AM 46.9342 135.5002 223° Southwest  Level Estimated
07:31AM 46.8523 135.3900 223° Southwest  Level Estimated
07:32AM 46.7704 135.2800 223° Southwest  Level Estimated
07:33AM 46.6883 135.1704 223° Southwest  Level Estimated
07:34AM 46.6061 135.0612 222° Southwest  Level Estimated
07:35AM 46.5238 134.9523 222° Southwest  Level Estimated
07:36AM 46.4414 134.8437 222° Southwest  Level Estimated
07:37AM 46.3590 134.7354 222° Southwest  Level Estimated
07:38AM 46.2764 134.6275 222° Southwest  Level Estimated
07:39AM 46.1937 134.5199 222° Southwest  Level Estimated
07:40AM 46.1109 134.4126 222° Southwest  Level Estimated
07:41AM 46.0280 134.3056 222° Southwest  Level Estimated
07:42AM 45.9450 134.1990 222° Southwest  Level Estimated
07:43AM 45.8619 134.0926 222° Southwest  Level Estimated
07:44AM 45.7787 133.9866 222° Southwest  Level Estimated
07:45AM 45.6954 133.8809 222° Southwest  Level Estimated
07:46AM 45.6120 133.7755 221° Southwest  Level Estimated
07:47AM 45.5286 133.6705 221° Southwest  Level Estimated
07:48AM 45.4450 133.5657 221° Southwest  Level Estimated
07:49AM 45.3613 133.4613 221° Southwest  Level Estimated
07:50AM 45.2775 133.3571 221° Southwest  Level Estimated
07:51AM 45.1937 133.2533 221° Southwest  Level Estimated
07:52AM 45.1097 133.1498 221° Southwest  Level Estimated
07:53AM 45.0257 133.0466 221° Southwest  Level Estimated
07:54AM 44.9416 132.9437 221° Southwest  Level Estimated
07:55AM 44.8573 132.8410 221° Southwest  Level Estimated
07:56AM 44.7730 132.7387 221° Southwest  Level Estimated
07:57AM 44.6886 132.6367 221° Southwest  Level Estimated
07:58AM 44.6041 132.5350 221° Southwest  Level Estimated
07:59AM 44.5195 132.4336 221° Southwest  Level Estimated
08:00AM 44.4348 132.3324 220° Southwest  Level Estimated
08:01AM 44.3500 132.2316 220° Southwest  Level Estimated
08:02AM 44.2652 132.1311 220° Southwest  Level Estimated
08:03AM 44.1802 132.0308 220° Southwest  Level Estimated
08:04AM 44.0952 131.9308 220° Southwest  Level Estimated
08:05AM 44.0101 131.8311 220° Southwest  Level Estimated
08:06AM 43.9249 131.7318 220° Southwest  Level Estimated
08:07AM 43.8396 131.6326 220° Southwest  Level Estimated
08:08AM 43.7542 131.5338 220° Southwest  Level Estimated
08:09AM 43.6687 131.4353 220° Southwest  Level Estimated
08:10AM 43.5831 131.3370 220° Southwest  Level Estimated
08:11AM 43.4975 131.2390 220° Southwest  Level Estimated
08:12AM 43.4118 131.1413 220° Southwest  Level Estimated
08:13AM 43.3260 131.0439 220° Southwest  Level Estimated
08:14AM 43.2401 130.9467 220° Southwest  Level Estimated
08:15AM 43.1541 130.8499 219° Southwest  Level Estimated
08:16AM 43.0681 130.7533 219° Southwest  Level Estimated
08:17AM 42.9820 130.6569 219° Southwest  Level Estimated
08:18AM 42.8957 130.5608 219° Southwest  Level Estimated
08:19AM 42.8095 130.4650 219° Southwest  Level Estimated
08:20AM 42.7231 130.3695 219° Southwest  Level Estimated
08:21AM 42.6366 130.2742 219° Southwest  Level Estimated
08:22AM 42.5501 130.1792 219° Southwest  Level Estimated
08:23AM 42.4635 130.0845 219° Southwest  Level Estimated
08:24AM 42.3768 129.9900 219° Southwest  Level Estimated
08:25AM 42.2901 129.8958 219° Southwest  Level Estimated
08:26AM 42.2032 129.8018 219° Southwest  Level Estimated
08:27AM 42.1163 129.7081 219° Southwest  Level Estimated
08:28AM 42.0293 129.6147 219° Southwest  Level Estimated
08:29AM 41.9422 129.5215 219° Southwest  Level Estimated
08:30AM 41.8551 129.4286 218° Southwest  Level Estimated
08:31AM 41.7679 129.3359 218° Southwest  Level Estimated
08:32AM 41.6806 129.2435 218° Southwest  Level Estimated
08:33AM 41.5932 129.1513 218° Southwest  Level Estimated
08:34AM 41.5058 129.0594 218° Southwest  Level Estimated
08:35AM 41.4183 128.9677 218° Southwest  Level Estimated
08:36AM 41.3307 128.8763 218° Southwest  Level Estimated
08:37AM 41.2431 128.7851 218° Southwest  Level Estimated
08:38AM 41.1553 128.6941 218° Southwest  Level Estimated
08:39AM 41.0675 128.6034 218° Southwest  Level Estimated
08:40AM 40.9797 128.5130 218° Southwest  Level Estimated
08:41AM 40.8917 128.4227 218° Southwest  Level Estimated
08:42AM 40.8037 128.3328 218° Southwest  Level Estimated
08:43AM 40.7156 128.2430 218° Southwest  Level Estimated
08:44AM 40.6275 128.1535 218° Southwest  Level Estimated
08:45AM 40.5393 128.0643 218° Southwest  Level Estimated
08:46AM 40.4510 127.9752 218° Southwest  Level Estimated
08:47AM 40.3626 127.8864 217° Southwest  Level Estimated
08:48AM 40.2742 127.7979 217° Southwest  Level Estimated
08:49AM 40.1857 127.7095 217° Southwest  Level Estimated
08:50AM 40.0971 127.6214 217° Southwest  Level Estimated
08:51AM 40.0085 127.5335 217° Southwest  Level Estimated
08:52AM 39.9198 127.4459 217° Southwest  Level Estimated
08:53AM 39.8311 127.3585 217° Southwest  Level Estimated
08:54AM 39.7423 127.2713 217° Southwest  Level Estimated
08:55AM 39.6534 127.1843 217° Southwest  Level Estimated
08:56AM 39.5644 127.0976 217° Southwest  Level Estimated
08:57AM 39.4754 127.0110 217° Southwest  Level Estimated
08:58AM 39.3863 126.9247 217° Southwest  Level Estimated
08:59AM 39.2972 126.8387 217° Southwest  Level Estimated
09:00AM 39.2080 126.7528 217° Southwest  Level Estimated
09:01AM 39.1187 126.6671 217° Southwest  Level Estimated
09:02AM 39.0294 126.5817 217° Southwest  Level Estimated
09:03AM 38.9400 126.4965 217° Southwest  Level Estimated
09:04AM 38.8506 126.4115 217° Southwest  Level Estimated
09:05AM 38.7610 126.3267 216° Southwest  Level Estimated
09:06AM 38.6715 126.2422 216° Southwest  Level Estimated
09:07AM 38.5818 126.1578 216° Southwest  Level Estimated
09:08AM 38.4921 126.0736 216° Southwest  Level Estimated
09:09AM 38.4024 125.9897 216° Southwest  Level Estimated
09:10AM 38.3125 125.9060 216° Southwest  Level Estimated
09:11AM 38.2227 125.8224 216° Southwest  Level Estimated
09:12AM 38.1327 125.7391 216° Southwest  Level Estimated
09:13AM 38.0427 125.6560 216° Southwest  Level Estimated
09:14AM 37.9527 125.5731 216° Southwest  Level Estimated
09:15AM 37.8626 125.4904 216° Southwest  Level Estimated
09:16AM 37.7724 125.4079 216° Southwest  Level Estimated
09:17AM 37.6822 125.3256 216° Southwest  Level Estimated
09:18AM 37.5919 125.2435 216° Southwest  Level Estimated
09:19AM 37.5015 125.1616 216° Southwest  Level Estimated
09:20AM 37.4112 125.0799 216° Southwest  Level Estimated
09:21AM 37.3207 124.9984 216° Southwest  Level Estimated
09:22AM 37.2302 124.9170 216° Southwest  Level Estimated
09:23AM 37.1396 124.8359 216° Southwest  Level Estimated
09:24AM 37.0490 124.7550 215° Southwest  Level Estimated
09:25AM 36.9583 124.6743 215° Southwest  Level Estimated
09:26AM 36.8676 124.5937 215° Southwest  Level Estimated
09:27AM 36.7768 124.5134 215° Southwest  Level Estimated
09:28AM 36.6860 124.4332 215° Southwest  Level Estimated
09:29AM 36.5951 124.3532 215° Southwest  Level Estimated
09:30AM 36.5042 124.2735 215° Southwest  Level Estimated
09:31AM 36.4132 124.1939 215° Southwest  Level Estimated
09:32AM 36.3221 124.1145 215° Southwest  Level Estimated
09:33AM 36.2310 124.0352 215° Southwest  Level Estimated
09:34AM 36.1399 123.9562 215° Southwest  Level Estimated
09:35AM 36.0486 123.8773 215° Southwest  Level Estimated
09:36AM 35.9574 123.7987 215° Southwest  Level Estimated
09:37AM 35.8661 123.7202 215° Southwest  Level Estimated
09:38AM 35.7747 123.6419 215° Southwest  Level Estimated
09:39AM 35.6833 123.5638 215° Southwest  Level Estimated
09:40AM 35.5919 123.4858 215° Southwest  Level Estimated
09:41AM 35.5003 123.4080 215° Southwest  Level Estimated
09:42AM 35.4088 123.3304 215° Southwest  Level Estimated
09:43AM 35.3172 123.2530 215° Southwest  Level Estimated
09:44AM 35.2255 123.1758 215° Southwest  Level Estimated
09:45AM 35.1338 123.0987 215° Southwest  Level Estimated
09:46AM 35.0420 123.0218 214° Southwest  Level Estimated
09:47AM 34.9502 122.9451 214° Southwest  Level Estimated
09:48AM 34.8584 122.8685 214° Southwest  Level Estimated
09:49AM 34.7665 122.7921 214° Southwest  Level Estimated
09:50AM 34.6745 122.7159 214° Southwest  Level Estimated
09:51AM 34.5825 122.6399 214° Southwest  Level Estimated
09:52AM 34.4905 122.5640 214° Southwest  Level Estimated
09:53AM 34.3984 122.4883 214° Southwest  Level Estimated
09:54AM 34.3063 122.4128 214° Southwest  Level Estimated
09:55AM 34.2141 122.3374 214° Southwest  Level Estimated
09:56AM 34.1219 122.2622 214° Southwest  Level Estimated
09:57AM 34.0296 122.1871 214° Southwest  Level Estimated
09:58AM 33.9373 122.1123 214° Southwest  Level Estimated
09:59AM 33.8449 122.0375 214° Southwest  Level Estimated
10:00AM 33.7525 121.9630 214° Southwest  Level Estimated
10:01AM 33.6600 121.8886 214° Southwest  Level Estimated
10:02AM 33.5676 121.8143 214° Southwest  Level Estimated
10:03AM 33.4750 121.7403 214° Southwest  Level Estimated
10:04AM 33.3824 121.6663 214° Southwest  Level Estimated
10:05AM 33.2898 121.5926 214° Southwest  Level Estimated
10:06AM 33.1971 121.5190 214° Southwest  Level Estimated
10:07AM 33.1044 121.4455 214° Southwest  Level Estimated
10:08AM 33.0116 121.3722 214° Southwest  Level Estimated
10:09AM 32.9188 121.2991 213° Southwest  Level Estimated
10:10AM 32.8260 121.2261 213° Southwest  Level Estimated
10:11AM 32.7331 121.1532 213° Southwest  Level Estimated
10:12AM 32.6402 121.0806 213° Southwest  Level Estimated
10:13AM 32.5472 121.0080 213° Southwest  Level Estimated
10:14AM 32.4542 120.9356 213° Southwest  Level Estimated
10:15AM 32.3611 120.8634 213° Southwest  Level Estimated
10:16AM 32.2680 120.7913 213° Southwest  Level Estimated
10:17AM 32.1749 120.7193 213° Southwest  Level Estimated
10:18AM 32.0817 120.6476 213° Southwest  Level Estimated
10:19AM 31.9885 120.5759 213° Southwest  Level Estimated
10:20AM 31.8952 120.5044 213° Southwest  Level Estimated
10:21AM 31.8019 120.4330 213° Southwest  Level Estimated
10:22AM 31.7086 120.3618 213° Southwest  Level Estimated
10:23AM 31.6152 120.2908 213° Southwest  Level Estimated
10:24AM 31.5218 120.2198 213° Southwest  Level Estimated
10:25AM 31.4283 120.1491 213° Southwest  Level Estimated
10:26AM 31.3349 120.0784 213° Southwest  Level Estimated
10:27AM 31.2413 120.0079 213° Southwest  Level Estimated
10:28AM 31.1478 119.9376 213° Southwest  Level Estimated
10:29AM 31.0541 119.8673 213° Southwest  Level Estimated
10:30AM 30.9605 119.7972 213° Southwest  Level Estimated
10:31AM 30.8668 119.7273 213° Southwest  Level Estimated
10:32AM 30.7731 119.6575 213° Southwest  Level Estimated
10:33AM 30.6793 119.5878 213° Southwest  Level Estimated
10:34AM 30.5855 119.5183 213° Southwest  Level Estimated
10:35AM 30.4917 119.4489 213° Southwest  Level Estimated
10:36AM 30.3978 119.3796 212° Southwest  Level Estimated
10:37AM 30.3039 119.3104 212° Southwest  Level Estimated
10:38AM 30.2100 119.2414 212° Southwest  Level Estimated
10:39AM 30.1160 119.1725 212° Southwest  Level Estimated
10:40AM 30.0220 119.1038 212° Southwest  Level Estimated
10:41AM 29.9279 119.0352 212° Southwest  Level Estimated
10:42AM 29.8338 118.9667 212° Southwest  Level Estimated
10:43AM 29.7397 118.8983 212° Southwest  Level Estimated
10:44AM 29.6455 118.8301 212° Southwest  Level Estimated
10:45AM 29.5514 118.7620 212° Southwest  Level Estimated
10:46AM 29.4571 118.6940 212° Southwest  Level Estimated
10:47AM 29.3629 118.6262 212° Southwest  Level Estimated
10:48AM 29.2686 118.5585 212° Southwest  Level Estimated
10:49AM 29.1742 118.4909 212° Southwest  Level Estimated
10:50AM 29.0799 118.4234 212° Southwest  Level Estimated
10:51AM 28.9855 118.3560 212° Southwest  Level Estimated
10:52AM 28.8911 118.2888 212° Southwest  Level Estimated
10:53AM 28.7966 118.2217 212° Southwest  Level Estimated
10:54AM 28.7021 118.1547 212° Southwest  Level Estimated
10:55AM 28.6076 118.0879 212° Southwest  Level Estimated
10:56AM 28.5130 118.0211 212° Southwest  Level Estimated
10:57AM 28.4184 117.9545 212° Southwest  Level Estimated
10:58AM 28.3238 117.8880 212° Southwest  Level Estimated
10:59AM 28.2291 117.8216 212° Southwest  Level Estimated
11:00AM 28.1344 117.7553 212° Southwest  Level Estimated
11:01AM 28.0397 117.6892 212° Southwest  Level Estimated
11:02AM 27.9450 117.6232 212° Southwest  Level Estimated
11:03AM 27.8502 117.5572 212° Southwest  Level Estimated
11:04AM 27.7554 117.4914 212° Southwest  Level Estimated
11:05AM 27.6605 117.4258 212° Southwest  Level Estimated
11:06AM 27.5656 117.3602 211° Southwest  Level Estimated
11:07AM 27.4707 117.2947 211° Southwest  Level Estimated
11:08AM 27.3758 117.2294 211° Southwest  Level Estimated
11:09AM 27.2808 117.1641 211° Southwest  Level Estimated
11:10AM 27.1858 117.0990 211° Southwest  Level Estimated
11:11AM 27.0908 117.0340 211° Southwest  Level Estimated
11:12AM 26.9957 116.9691 211° Southwest  Level Estimated
11:13AM 26.9006 116.9043 211° Southwest  Level Estimated
11:14AM 26.8055 116.8396 211° Southwest  Level Estimated
11:15AM 26.7104 116.7750 211° Southwest  Level Estimated
11:16AM 26.6152 116.7105 211° Southwest  Level Estimated
11:17AM 26.5200 116.6462 211° Southwest  Level Estimated
11:18AM 26.4247 116.5819 211° Southwest  Level Estimated
11:19AM 26.3295 116.5178 211° Southwest  Level Estimated
11:20AM 26.2342 116.4537 211° Southwest  Level Estimated
11:21AM 26.1388 116.3898 211° Southwest  Level Estimated
11:22AM 26.0435 116.3260 211° Southwest  Level Estimated
11:23AM 25.9481 116.2622 211° Southwest  Level Estimated
11:24AM 25.8527 116.1986 211° Southwest  Level Estimated
11:25AM 25.7573 116.1351 211° Southwest  Level Estimated
11:26AM 25.6618 116.0717 211° Southwest  Level Estimated
11:27AM 25.5663 116.0083 211° Southwest  Level Estimated
11:28AM 25.4708 115.9451 211° Southwest  Level Estimated
11:29AM 25.3753 115.8820 211° Southwest  Level Estimated
11:30AM 25.2797 115.8190 211° Southwest  Level Estimated
11:31AM 25.1841 115.7560 211° Southwest  Level Estimated
11:32AM 25.0885 115.6932 211° Southwest  Level Estimated
11:33AM 24.9928 115.6305 211° Southwest  Level Estimated
11:34AM 24.8971 115.5679 211° Southwest  Level Estimated
11:35AM 24.8014 115.5053 211° Southwest  Level Estimated
11:36AM 24.7057 115.4429 211° Southwest  Level Estimated
11:37AM 24.6100 115.3806 211° Southwest  Level Estimated
11:38AM 24.5142 115.3183 211° Southwest  Level Estimated
11:39AM 24.4184 115.2562 211° Southwest  Level Estimated
11:40AM 24.3225 115.1941 211° Southwest  Level Estimated
11:41AM 24.2267 115.1322 211° Southwest  Level Estimated
11:42AM 24.1308 115.0703 210° Southwest  Level Estimated
11:43AM 24.0349 115.0085 210° Southwest  Level Estimated
11:44AM 23.9390 114.9469 210° Southwest  Level Estimated
11:45AM 23.8430 114.8853 210° Southwest  Level Estimated
11:46AM 23.7470 114.8238 210° Southwest  Level Estimated
11:47AM 23.6510 114.7623 210° Southwest  Level Estimated
11:48AM 23.5550 114.7010 210° Southwest  Level Estimated
11:49AM 23.4590 114.6398 210° Southwest  Level Estimated
11:50AM 23.3629 114.5787 210° Southwest  Level Estimated
11:51AM 23.2668 114.5176 210° Southwest  Level Estimated
11:52AM 23.1707 114.4566 210° Southwest  Level Estimated
11:53AM 23.0745 114.3958 210° Southwest  Level Estimated
11:54AM 22.9783 114.3350 210° Southwest  Level Estimated
11:55AM 22.8822 114.2743 210° Southwest  Level Estimated
11:56AM 22.7859 114.2137 210° Southwest  Level Estimated
11:57AM 22.6897 114.1531 210° Southwest  Level Estimated
11:58AM 22.5934 114.0927 210° Southwest  Level Estimated
11:59AM 22.4972 114.0323 210° Southwest  Level Estimated
12:00PM 22.4008 113.9720 210° Southwest  Level Estimated
12:01PM 22.3089 113.9146 210° Southwest  Level Estimated
12:02PM 22.3089 113.9146 110° East  Level Estimated
12:03PM 22.3089 113.9146 110° East  Level Estimated
12:04PM 22.3089 113.9146 110° East  Level Estimated
12:05PM 22.3089 113.9146 110° East  Level Estimated
12:06PM 22.3089 113.9146 110° East  Level Estimated
12:07PM 22.3089 113.9146 110° East  Level Estimated
12:08PM 22.3089 113.9146 110° East  Level Estimated
12:09PM 22.3089 113.9146 110° East  Level Estimated
12:10PM 22.3089 113.9146 110° East  Level Estimated
12:11PM 22.3089 113.9146 110° East  Level Estimated
12:12PM 22.3089 113.9146 110° East  Level Estimated
12:13PM 22.3089 113.9146 110° East  Level Estimated
12:14PM 22.3089 113.9146 110° East  Level Estimated
12:15PM 22.3089 113.9146 110° East  Level Estimated
12:16PM 22.3089 113.9146 110° East  Level Estimated
12:17PM 22.3089 113.9146 110° East  Level Estimated